createdAt,value
2023-01-07T05:47:36.794Z,3.97
2023-01-07T05:50:05.225Z,2.60
2023-01-07T05:52:33.138Z,3.20
2023-01-07T05:55:01.019Z,2.55
2023-01-07T05:57:29.037Z,2.70
2023-01-07T05:59:57.004Z,2.88
2023-01-07T06:02:24.983Z,3.20
2023-01-07T06:04:54.520Z,3.33
2023-01-07T06:07:22.444Z,2.40
2023-01-07T06:09:50.370Z,2.40
2023-01-07T06:12:18.347Z,2.20
2023-01-07T06:14:46.238Z,2.10
2023-01-07T06:17:14.142Z,2.17
2023-01-07T06:19:42.055Z,2.20
2023-01-07T06:22:11.274Z,2.00
2023-01-07T06:24:39.851Z,2.30
2023-01-07T06:27:07.825Z,2.17
2023-01-07T06:29:35.795Z,2.40
2023-01-07T06:32:03.708Z,2.60
2023-01-07T06:34:31.707Z,2.80
2023-01-07T06:36:59.672Z,2.35
2023-01-07T06:39:29.006Z,2.30
2023-01-07T06:41:57.054Z,3.72
2023-01-07T06:44:24.982Z,4.20
2023-01-07T06:46:52.928Z,2.15
2023-01-07T06:49:20.891Z,2.40
2023-01-07T06:51:49.015Z,5.70
2023-01-07T06:54:17.069Z,3.30
2023-01-07T06:56:46.498Z,2.78
2023-01-07T06:59:14.642Z,2.65
2023-01-07T07:01:44.497Z,2.33
2023-01-07T07:04:14.447Z,2.33
2023-01-07T07:06:42.464Z,2.60
2023-01-07T07:09:10.949Z,2.90
2023-01-07T07:11:39.234Z,2.95
2023-01-07T07:14:09.408Z,2.47
2023-01-07T07:16:37.308Z,2.38
2023-01-07T07:19:05.258Z,2.20
2023-01-07T07:21:33.142Z,2.58
2023-01-07T07:24:01.142Z,2.80
2023-01-07T07:26:29.044Z,2.40
2023-01-07T07:28:57.012Z,2.50
2023-01-07T07:31:26.375Z,3.88
2023-01-07T07:33:54.251Z,3.22
2023-01-07T07:36:22.225Z,3.92
2023-01-07T07:38:50.169Z,3.92
2023-01-07T07:41:18.146Z,3.65
2023-01-07T07:43:46.119Z,3.30
2023-01-07T15:03:12.005Z,5.55
2023-01-07T15:06:03.854Z,5.05
2023-01-07T15:09:02.201Z,6.28
2023-01-07T15:11:49.119Z,6.18
2023-01-07T15:14:44.679Z,5.20
2023-01-07T15:17:15.165Z,6.85
2023-01-07T15:19:44.549Z,6.00
2023-01-07T15:22:33.254Z,4.50
2023-01-07T15:25:07.025Z,5.10
2023-01-07T15:27:45.495Z,4.65
2023-01-07T15:30:27.331Z,6.30
2023-01-07T15:33:04.048Z,5.88
2023-01-07T15:35:35.400Z,12.02
2023-01-07T15:38:05.384Z,7.25
2023-01-07T15:40:33.358Z,5.60
2023-01-07T15:43:01.508Z,5.50
2023-01-07T15:45:29.957Z,5.32
2023-01-07T15:48:07.903Z,5.55
2023-01-07T15:50:37.824Z,6.10
2023-01-07T15:53:20.154Z,6.05
2023-01-07T15:55:54.223Z,6.57
2023-01-07T15:58:25.156Z,7.65
2023-01-07T16:00:54.557Z,6.35
2023-01-07T16:03:23.273Z,6.72
2023-01-07T16:05:53.173Z,6.93
2023-01-07T16:08:26.202Z,6.55
2023-01-07T16:11:02.208Z,6.70
2023-01-07T16:13:31.551Z,7.68
2023-01-07T16:16:02.994Z,7.00
2023-01-07T16:18:32.328Z,7.90
2023-01-07T16:21:03.447Z,7.28
2023-01-07T16:23:35.227Z,8.65
2023-01-07T16:26:06.419Z,8.88
2023-01-07T16:28:40.902Z,10.32
2023-01-07T16:31:12.563Z,8.23
2023-01-07T16:33:42.130Z,7.93
2023-01-07T16:36:15.199Z,8.02
2023-01-07T16:38:46.241Z,9.05
2023-01-07T16:41:22.328Z,9.90
2023-01-07T16:43:52.420Z,8.55
2023-01-07T16:46:24.558Z,9.32
2023-01-07T16:49:22.546Z,8.35
2023-01-07T16:51:52.220Z,10.52
2023-01-07T16:54:37.107Z,11.85
2023-01-07T16:57:06.986Z,9.98
2023-01-07T16:59:38.067Z,22.05
2023-01-07T17:02:18.927Z,11.40
2023-01-07T17:04:47.875Z,9.63
2023-01-07T17:07:22.719Z,8.70
2023-01-07T17:09:54.579Z,11.88
2023-01-07T17:12:30.436Z,15.65
2023-01-07T17:14:58.589Z,12.98
2023-01-07T17:17:32.329Z,12.77
2023-01-07T17:20:22.274Z,10.45
2023-01-07T17:22:50.930Z,11.43
2023-01-07T17:25:26.028Z,16.50
2023-01-07T17:27:58.199Z,12.93
2023-01-07T17:30:32.709Z,10.57
2023-01-07T17:33:00.867Z,9.25
2023-01-07T17:35:29.099Z,10.65
2023-01-07T17:37:57.657Z,11.85
2023-01-07T17:40:27.082Z,10.40
2023-01-07T17:43:14.228Z,10.63
2023-01-07T17:45:42.164Z,9.30
2023-01-07T17:48:13.661Z,18.10
2023-01-07T17:50:43.032Z,13.18
2023-01-07T17:53:20.797Z,11.43
2023-01-07T17:55:50.207Z,14.50
2023-01-07T17:58:26.703Z,26.67
2023-01-07T18:00:55.059Z,14.43
2023-01-07T18:03:24.873Z,18.05
2023-01-07T18:05:53.214Z,15.63
2023-01-07T18:08:21.550Z,11.40
2023-01-07T18:11:10.806Z,9.77
2023-01-07T18:13:38.870Z,9.30
2023-01-07T18:16:07.596Z,11.27
2023-01-07T18:18:35.586Z,13.10
2023-01-07T18:21:06.411Z,15.18
2023-01-07T18:23:34.421Z,11.38
2023-01-07T18:26:05.988Z,24.75
2023-01-07T18:28:33.946Z,9.95
2023-01-07T18:31:01.922Z,8.55
2023-01-07T18:33:30.037Z,10.10
2023-01-07T18:35:58.088Z,10.07
2023-01-07T18:38:26.232Z,10.02
2023-01-07T18:40:56.394Z,12.00
2023-01-07T18:43:25.806Z,10.32
2023-01-07T18:45:53.923Z,18.27
2023-01-07T18:48:21.955Z,16.75
2023-01-07T18:50:51.077Z,17.85
2023-01-07T18:53:19.929Z,29.70
2023-01-07T18:55:48.088Z,24.13
2023-01-07T18:58:17.277Z,25.25
2023-01-07T19:00:46.719Z,13.32
2023-01-07T19:03:15.864Z,27.45
2023-01-07T19:05:44.086Z,13.57
2023-01-07T19:08:12.123Z,12.65
2023-01-07T19:10:44.474Z,11.77
2023-01-07T19:13:12.523Z,14.65
2023-01-07T19:15:41.405Z,13.80
2023-01-07T19:18:10.976Z,13.88
2023-01-07T19:20:39.008Z,12.52
2023-01-07T19:23:06.981Z,9.05
2023-01-07T19:25:35.193Z,8.82
2023-01-07T19:28:03.324Z,9.30
2023-01-07T19:30:31.394Z,8.13
2023-01-07T19:33:00.912Z,8.55
2023-01-07T19:35:31.972Z,10.50
2023-01-07T19:37:59.915Z,7.63
2023-01-07T19:40:27.902Z,7.82
2023-01-07T19:42:55.886Z,7.85
2023-01-07T19:45:23.932Z,8.10
2023-01-07T19:47:52.194Z,7.35
2023-01-07T19:50:20.283Z,8.30
2023-01-07T19:52:49.679Z,7.68
2023-01-07T19:55:17.803Z,11.75
2023-01-07T19:57:45.806Z,8.75
2023-01-07T20:00:14.502Z,8.55
2023-01-07T20:02:42.506Z,6.50
2023-01-07T20:05:10.760Z,6.57
2023-01-07T20:07:39.037Z,6.97
2023-01-07T20:10:09.766Z,6.72
2023-01-07T20:12:37.760Z,7.07
2023-01-07T20:15:06.621Z,7.00
2023-01-07T20:17:34.629Z,7.18
2023-01-07T20:20:02.606Z,7.93
2023-01-07T20:22:31.058Z,6.97
2023-01-07T20:24:58.965Z,8.07
2023-01-07T20:27:28.340Z,7.57
2023-01-07T20:29:56.340Z,7.05
2023-01-07T20:32:24.345Z,7.20
2023-01-07T20:34:52.687Z,7.53
2023-01-07T20:37:20.680Z,6.82
2023-01-07T20:39:48.683Z,7.15
2023-01-07T20:42:16.723Z,7.53
2023-01-07T20:44:47.267Z,7.20
2023-01-07T20:47:15.288Z,7.10
2023-01-07T20:49:43.677Z,6.38
2023-01-07T20:52:11.608Z,6.80
2023-01-07T20:54:39.774Z,7.93
2023-01-07T20:57:07.754Z,7.20
2023-01-07T20:59:35.750Z,7.10
